Terminal Aerodrome Forecast
Issued by NWS Austin/San Antonio, TX

Home | Current Version | Previous Version | Text Only | Print | Product List | Glossary On
Versions: 1 2 3 4 5 6 7 8 9 10 11 12 13 14 15 16 17 18 19 20 21 22 23
000
FTUS44 KEWX 221700 RRA
TAFSAT
TAF
KSAT 221742Z 2218/2324 24010G15KT P6SM SCT150 BKN250
     FM230000 VRB04KT P6SM BKN250
     FM231600 36015G20KT P6SM BKN030 BKN250=

USA.gov is the U.S. government's official web portal to all federal, state and local government web resources and services.